createdAt,value
2022-11-15T00:00:35.454Z,4.85
2022-11-15T00:03:01.884Z,4.90
2022-11-15T00:05:28.312Z,4.92
2022-11-15T00:07:56.193Z,4.90
2022-11-15T00:10:22.821Z,4.84
2022-11-15T00:12:49.238Z,4.71
2022-11-15T00:15:15.965Z,4.68
2022-11-15T00:17:42.361Z,4.87
2022-11-15T00:20:09.270Z,4.87
2022-11-15T00:22:35.685Z,4.64
2022-11-15T00:25:02.119Z,4.90
2022-11-15T00:27:28.550Z,4.84
2022-11-15T00:29:55.138Z,4.55
2022-11-15T00:32:21.576Z,4.69
2022-11-15T00:34:47.985Z,4.43
2022-11-15T00:37:14.421Z,4.27
2022-11-15T00:39:40.810Z,3.82
2022-11-15T00:42:07.219Z,4.03
2022-11-15T00:44:33.653Z,4.04
2022-11-15T00:47:00.495Z,4.12
2022-11-15T00:49:26.909Z,4.18
2022-11-15T00:51:53.290Z,3.95
2022-11-15T00:54:19.669Z,4.02
2022-11-15T00:56:46.165Z,3.63
2022-11-15T00:59:12.594Z,3.99
2022-11-15T01:01:38.992Z,3.96
2022-11-15T01:04:05.455Z,4.23
2022-11-15T01:06:31.898Z,3.82
2022-11-15T01:08:58.296Z,4.29
2022-11-15T01:11:24.719Z,4.28
2022-11-15T01:13:51.189Z,4.28
2022-11-15T01:16:19.540Z,4.08
2022-11-15T01:18:46.781Z,3.99
2022-11-15T01:21:18.384Z,3.49
2022-11-15T01:23:45.752Z,3.60
2022-11-15T01:26:14.400Z,3.89
2022-11-15T01:28:42.693Z,3.82
2022-11-15T01:31:17.764Z,3.83
2022-11-15T01:33:44.332Z,3.70
2022-11-15T01:36:19.641Z,3.67
2022-11-15T01:38:46.096Z,3.73
2022-11-15T01:41:21.421Z,3.46
2022-11-15T01:43:50.066Z,3.84
2022-11-15T01:46:22.235Z,4.06
2022-11-15T01:48:50.613Z,3.99
2022-11-15T01:51:19.867Z,4.01
2022-11-15T01:53:52.822Z,3.90
2022-11-15T01:56:24.332Z,3.92
2022-11-15T01:58:52.509Z,3.79
2022-11-15T02:01:19.037Z,3.83
2022-11-15T02:04:00.699Z,3.69
2022-11-15T02:07:22.682Z,3.71
2022-11-15T02:09:50.978Z,3.65
2022-11-15T02:12:20.806Z,3.36
2022-11-15T02:14:52.578Z,3.40
2022-11-15T02:17:41.975Z,3.62
2022-11-15T02:20:14.509Z,3.73
2022-11-15T02:22:55.883Z,3.60
2022-11-15T02:25:38.874Z,3.73
2022-11-15T02:28:31.843Z,3.78
2022-11-15T02:31:11.087Z,3.88
2022-11-15T02:33:48.341Z,3.90
2022-11-15T02:36:22.578Z,4.06
2022-11-15T02:39:17.239Z,4.19
2022-11-15T02:41:53.258Z,4.09
2022-11-15T02:44:33.149Z,4.29
2022-11-15T02:47:14.893Z,4.32
2022-11-15T02:49:52.624Z,4.27
2022-11-15T02:52:21.407Z,4.12
2022-11-15T02:55:01.948Z,4.17
2022-11-15T02:57:45.150Z,3.97
2022-11-15T03:00:13.841Z,4.00
2022-11-15T03:02:59.871Z,3.84
2022-11-15T03:05:45.228Z,3.57
2022-11-15T03:08:14.376Z,3.91
2022-11-15T03:10:46.962Z,3.56
2022-11-15T03:13:27.493Z,3.42
2022-11-15T03:16:07.649Z,3.23
2022-11-15T03:18:39.552Z,3.67
2022-11-15T03:21:09.596Z,3.86
2022-11-15T03:23:38.111Z,3.59
2022-11-15T03:26:08.114Z,3.59
2022-11-15T03:28:45.196Z,3.54
2022-11-15T03:31:33.858Z,3.56
2022-11-15T03:34:05.269Z,3.36
2022-11-15T03:36:35.441Z,3.44
2022-11-15T03:39:06.121Z,3.85
2022-11-15T03:41:44.971Z,3.93
2022-11-15T03:44:32.762Z,3.99
2022-11-15T03:47:14.441Z,3.94
2022-11-15T03:49:43.950Z,3.59
2022-11-15T03:52:11.605Z,3.55
2022-11-15T03:54:48.490Z,3.58
2022-11-15T03:57:14.954Z,3.63
2022-11-15T03:59:41.442Z,3.63
2022-11-15T04:02:07.874Z,3.76
2022-11-15T04:04:34.293Z,3.95
2022-11-15T04:07:00.837Z,3.79
2022-11-15T04:09:27.285Z,3.24
2022-11-15T04:11:53.721Z,3.42
2022-11-15T04:14:20.168Z,3.39
2022-11-15T04:16:46.580Z,3.41
2022-11-15T04:19:31.613Z,3.44
2022-11-15T04:22:16.567Z,3.45
2022-11-15T04:24:42.943Z,3.08
2022-11-15T04:27:09.419Z,3.44
2022-11-15T04:29:35.850Z,3.70
2022-11-15T04:32:04.473Z,3.84
2022-11-15T04:34:30.911Z,3.83
2022-11-15T04:37:16.949Z,3.91
2022-11-15T04:39:44.255Z,3.83
2022-11-15T04:42:11.224Z,3.82
2022-11-15T04:44:37.767Z,3.69
2022-11-15T04:47:04.633Z,3.86
2022-11-15T04:49:31.032Z,3.84
2022-11-15T04:51:57.453Z,3.86
2022-11-15T04:54:23.921Z,3.97
2022-11-15T04:56:50.348Z,4.03
2022-11-15T04:59:16.796Z,4.01
2022-11-15T05:01:45.013Z,3.88
2022-11-15T05:04:20.643Z,3.76
2022-11-15T05:06:51.504Z,3.79
2022-11-15T05:09:19.402Z,3.70
2022-11-15T05:11:46.373Z,3.82
2022-11-15T05:14:12.877Z,3.69
2022-11-15T05:16:39.451Z,3.74
2022-11-15T05:19:06.536Z,3.89
2022-11-15T05:21:33.716Z,3.97
2022-11-15T05:24:00.517Z,3.81
2022-11-15T05:26:27.835Z,3.91
2022-11-15T05:28:56.363Z,3.89
2022-11-15T05:31:22.987Z,3.72
2022-11-15T05:33:52.426Z,3.68
2022-11-15T05:36:28.549Z,3.82
2022-11-15T05:38:55.225Z,3.82
2022-11-15T05:41:27.747Z,3.95
2022-11-15T05:43:54.972Z,3.93
2022-11-15T05:46:21.507Z,3.89
2022-11-15T05:48:52.612Z,3.75
2022-11-15T05:51:21.744Z,3.66
2022-11-15T05:53:49.125Z,3.73
2022-11-15T05:56:15.897Z,3.53
2022-11-15T05:58:43.053Z,3.59
2022-11-15T06:01:10.025Z,3.61
2022-11-15T06:03:36.441Z,3.88
2022-11-15T06:06:02.975Z,3.75
2022-11-15T06:08:29.502Z,4.02
2022-11-15T06:10:56.011Z,4.01
2022-11-15T06:13:22.472Z,4.00
2022-11-15T06:15:49.236Z,3.99
2022-11-15T06:18:15.664Z,4.01
2022-11-15T06:20:42.113Z,4.11
2022-11-15T06:23:08.569Z,4.16
2022-11-15T06:25:35.021Z,4.14
2022-11-15T06:28:01.485Z,4.16
2022-11-15T06:30:28.045Z,4.17
2022-11-15T06:33:03.614Z,4.02
2022-11-15T06:35:30.993Z,3.99
2022-11-15T06:38:03.957Z,3.97
2022-11-15T06:40:30.364Z,4.02
2022-11-15T06:43:00.738Z,3.90
2022-11-15T06:45:27.504Z,4.15
2022-11-15T06:47:54.111Z,4.15
2022-11-15T06:50:20.744Z,4.06
2022-11-15T06:52:47.158Z,3.96
2022-11-15T06:55:13.795Z,3.98
2022-11-15T06:57:50.952Z,4.05
2022-11-15T07:00:21.893Z,4.16
2022-11-15T07:02:48.976Z,4.05
2022-11-15T07:05:16.781Z,4.28
2022-11-15T07:07:43.359Z,4.22
2022-11-15T07:10:10.432Z,4.13
2022-11-15T07:12:36.903Z,4.25
2022-11-15T07:15:03.579Z,4.39
2022-11-15T07:17:30.025Z,4.32
2022-11-15T07:19:56.438Z,4.35
2022-11-15T07:22:22.938Z,4.42
2022-11-15T07:24:49.340Z,4.47
2022-11-15T07:27:15.870Z,4.50
2022-11-15T07:29:42.398Z,4.64
2022-11-15T07:32:09.835Z,4.68
2022-11-15T07:34:36.253Z,4.73
2022-11-15T07:37:02.701Z,4.65
2022-11-15T07:39:29.080Z,4.62
2022-11-15T07:42:15.489Z,4.69
2022-11-15T07:44:41.931Z,4.82
2022-11-15T07:47:08.389Z,4.84
2022-11-15T07:49:34.824Z,4.85
2022-11-15T07:52:01.262Z,4.69
2022-11-15T07:54:27.674Z,4.88
2022-11-15T07:56:54.097Z,4.93
2022-11-15T07:59:20.600Z,4.70
2022-11-15T08:01:47.198Z,4.92
2022-11-15T08:04:13.820Z,4.84
2022-11-15T08:06:40.230Z,4.90
2022-11-15T08:09:06.666Z,4.94
2022-11-15T08:11:33.352Z,4.77
2022-11-15T08:14:00.168Z,4.90
2022-11-15T08:16:26.561Z,4.48
2022-11-15T08:18:53.169Z,4.58
2022-11-15T08:21:21.403Z,5.17
2022-11-15T08:23:48.209Z,5.16
2022-11-15T08:26:15.198Z,4.53
2022-11-15T08:28:42.650Z,4.73
2022-11-15T08:31:15.254Z,5.24
2022-11-15T08:33:41.689Z,5.38
2022-11-15T08:36:15.230Z,5.61
2022-11-15T08:38:42.239Z,5.61
2022-11-15T08:41:14.762Z,5.39
2022-11-15T08:43:41.276Z,5.51
2022-11-15T08:46:12.873Z,5.31
2022-11-15T08:48:39.265Z,5.05
2022-11-15T08:51:05.724Z,5.66
2022-11-15T08:53:32.143Z,5.27
2022-11-15T08:55:58.534Z,5.68
2022-11-15T08:58:24.955Z,5.36
2022-11-15T09:00:51.415Z,5.68
2022-11-15T09:03:17.953Z,5.70
2022-11-15T09:05:44.347Z,5.97
2022-11-15T09:08:32.797Z,6.02
2022-11-15T09:10:57.274Z,6.15
2022-11-15T09:13:23.703Z,6.12
2022-11-15T09:15:50.179Z,6.35
2022-11-15T09:18:16.810Z,6.34
2022-11-15T09:20:43.365Z,6.56
2022-11-15T09:23:09.866Z,6.84
2022-11-15T09:25:37.465Z,7.55
2022-11-15T09:28:07.605Z,7.81
2022-11-15T09:30:34.008Z,8.24
2022-11-15T09:33:07.804Z,8.02
2022-11-15T09:35:34.301Z,8.92
2022-11-15T09:38:00.799Z,8.87
2022-11-15T09:40:27.478Z,9.18
2022-11-15T09:42:56.997Z,8.83
2022-11-15T09:45:32.904Z,9.19
2022-11-15T09:48:14.516Z,9.89
2022-11-15T09:50:47.758Z,10.10
2022-11-15T09:53:50.697Z,9.63
2022-11-15T09:56:24.048Z,10.74
2022-11-15T09:59:32.437Z,10.60
2022-11-15T10:02:33.881Z,10.77
2022-11-15T10:05:02.290Z,11.02
2022-11-15T10:07:44.141Z,10.96
2022-11-15T10:10:22.403Z,10.85
2022-11-15T10:12:51.075Z,11.41
2022-11-15T10:15:23.524Z,11.84
2022-11-15T10:18:15.882Z,11.58
2022-11-15T10:20:56.828Z,12.31
2022-11-15T10:23:24.488Z,12.40
2022-11-15T10:25:57.789Z,11.85
2022-11-15T10:28:32.349Z,11.87
2022-11-15T10:31:01.920Z,12.01
2022-11-15T10:33:37.241Z,12.28
2022-11-15T10:36:09.808Z,13.05
2022-11-15T10:38:51.155Z,12.38
2022-11-15T10:41:20.566Z,12.85
2022-11-15T10:44:08.357Z,13.01
2022-11-15T10:46:51.689Z,12.84
2022-11-15T10:49:26.544Z,12.47
2022-11-15T10:51:58.897Z,13.02
2022-11-15T10:54:44.621Z,12.71
2022-11-15T10:57:20.359Z,13.01
2022-11-15T10:59:49.764Z,12.89
2022-11-15T11:02:57.572Z,13.03
2022-11-15T11:05:42.626Z,12.76
2022-11-15T11:08:12.185Z,12.75
2022-11-15T11:10:51.698Z,13.47
2022-11-15T11:13:34.118Z,13.87
2022-11-15T11:16:15.521Z,13.32
2022-11-15T11:19:02.341Z,13.51
2022-11-15T11:21:50.536Z,13.57
2022-11-15T11:24:35.539Z,14.35
2022-11-15T11:27:33.350Z,13.06
2022-11-15T11:30:14.031Z,13.79
2022-11-15T11:32:56.443Z,11.71
2022-11-15T11:36:13.919Z,13.22
2022-11-15T11:38:40.282Z,13.92
2022-11-15T11:41:39.047Z,14.69
2022-11-15T11:44:29.930Z,14.90
2022-11-15T11:47:01.841Z,15.59
2022-11-15T11:49:28.165Z,14.33
2022-11-15T11:52:11.412Z,12.86
2022-11-15T11:54:52.439Z,14.55
2022-11-15T11:58:00.502Z,16.14
2022-11-15T12:00:29.460Z,14.02
2022-11-15T12:03:08.239Z,16.09
2022-11-15T12:05:40.875Z,15.86
2022-11-15T12:08:25.596Z,17.73
2022-11-15T12:11:02.239Z,18.79
2022-11-15T12:13:34.883Z,17.20
2022-11-15T12:16:10.497Z,18.21
2022-11-15T12:18:38.184Z,17.66
2022-11-15T12:21:39.655Z,18.08
2022-11-15T12:24:15.443Z,16.62
2022-11-15T12:26:53.065Z,16.53
2022-11-15T12:29:26.994Z,16.32
2022-11-15T12:31:57.850Z,16.63
2022-11-15T12:34:46.063Z,16.02
2022-11-15T12:37:38.619Z,14.52
2022-11-15T12:40:19.598Z,14.64
2022-11-15T12:43:15.117Z,14.71
2022-11-15T12:45:43.829Z,14.18
2022-11-15T12:48:19.116Z,14.18
2022-11-15T12:50:51.553Z,13.17
2022-11-15T12:53:36.105Z,13.20
2022-11-15T12:56:05.223Z,13.40
2022-11-15T12:58:51.858Z,12.84
2022-11-15T13:01:34.198Z,12.40
2022-11-15T13:04:19.607Z,12.82
2022-11-15T13:06:52.409Z,12.60
2022-11-15T13:09:30.801Z,12.71
2022-11-15T13:11:58.393Z,12.62
2022-11-15T13:14:44.213Z,12.57
2022-11-15T13:17:19.997Z,12.59
2022-11-15T13:20:16.273Z,12.48
2022-11-15T13:23:02.894Z,12.32
2022-11-15T13:25:58.782Z,12.37
2022-11-15T13:28:39.570Z,12.43
2022-11-15T13:31:18.073Z,12.37
2022-11-15T13:33:45.317Z,12.40
2022-11-15T13:36:20.763Z,12.45
2022-11-15T13:38:59.138Z,12.28
2022-11-15T13:41:32.144Z,12.24
2022-11-15T13:44:00.550Z,12.18
2022-11-15T13:46:34.692Z,11.89
2022-11-15T13:49:02.334Z,11.82
2022-11-15T13:51:55.333Z,11.85
2022-11-15T13:54:26.945Z,11.87
2022-11-15T13:56:59.177Z,11.91
2022-11-15T13:59:26.104Z,11.80
2022-11-15T14:01:54.574Z,11.85
2022-11-15T14:04:24.089Z,11.87
2022-11-15T14:06:56.075Z,11.80
2022-11-15T14:09:40.918Z,11.84
2022-11-15T14:12:51.825Z,11.83
2022-11-15T14:15:27.108Z,11.65
2022-11-15T14:17:53.602Z,11.73
2022-11-15T14:20:27.014Z,11.51
2022-11-15T14:23:05.158Z,11.39
2022-11-15T14:25:36.110Z,11.25
2022-11-15T14:28:17.589Z,11.27
2022-11-15T14:30:48.107Z,11.19
2022-11-15T14:33:29.359Z,11.22
2022-11-15T14:35:58.123Z,11.43
2022-11-15T14:38:26.266Z,11.28
2022-11-15T14:40:52.890Z,11.39
2022-11-15T14:43:19.436Z,11.23
2022-11-15T14:45:45.885Z,11.22
2022-11-15T14:48:12.365Z,10.94
2022-11-15T14:50:39.670Z,10.99
2022-11-15T14:53:06.842Z,10.79
2022-11-15T14:55:37.175Z,10.65
2022-11-15T14:58:10.596Z,10.75
2022-11-15T15:00:39.339Z,10.70
2022-11-15T15:03:06.699Z,10.71
2022-11-15T15:05:36.044Z,10.82
2022-11-15T15:08:03.074Z,10.84
2022-11-15T15:10:40.215Z,10.82
2022-11-15T15:13:17.492Z,10.84
2022-11-15T15:15:44.052Z,10.71
2022-11-15T15:18:12.191Z,10.70
2022-11-15T15:20:40.898Z,10.55
2022-11-15T15:23:16.908Z,10.48
2022-11-15T15:25:44.553Z,10.49
2022-11-15T15:28:10.966Z,10.49
2022-11-15T15:30:37.407Z,10.46
2022-11-15T15:33:03.923Z,10.44
2022-11-15T15:35:33.290Z,10.43
2022-11-15T15:38:00.017Z,10.42
2022-11-15T15:40:29.078Z,10.36
2022-11-15T15:42:55.542Z,10.24
2022-11-15T15:45:22.081Z,10.22
2022-11-15T15:47:50.437Z,10.13
2022-11-15T15:50:28.442Z,10.22
2022-11-15T15:52:57.897Z,10.08
2022-11-15T15:55:25.244Z,10.09
2022-11-15T15:57:51.926Z,10.13
2022-11-15T16:00:20.660Z,9.98
2022-11-15T16:02:47.166Z,9.87
2022-11-15T16:05:13.958Z,9.84
2022-11-15T16:07:41.049Z,9.84
2022-11-15T16:10:27.253Z,9.83
2022-11-15T16:12:54.840Z,9.80
2022-11-15T16:15:22.822Z,9.70
2022-11-15T16:18:00.651Z,9.77
2022-11-15T16:20:36.788Z,9.68
2022-11-15T16:23:09.096Z,9.57
2022-11-15T16:25:49.429Z,9.60
2022-11-15T16:28:30.604Z,9.44
2022-11-15T16:31:10.656Z,9.42
2022-11-15T16:33:37.896Z,9.35
2022-11-15T16:36:06.176Z,9.30
2022-11-15T16:38:33.407Z,9.25
2022-11-15T16:41:00.045Z,9.23
2022-11-15T16:43:26.493Z,9.13
2022-11-15T16:45:52.910Z,9.10
2022-11-15T16:48:28.143Z,9.00
2022-11-15T16:50:56.369Z,8.95
2022-11-15T16:53:23.634Z,8.93
2022-11-15T16:55:50.040Z,8.92
2022-11-15T16:58:16.423Z,8.94
2022-11-15T17:00:42.933Z,8.93
2022-11-15T17:03:09.390Z,8.61
2022-11-15T17:05:35.921Z,8.55
2022-11-15T17:08:02.348Z,8.46
2022-11-15T17:10:28.838Z,8.46
2022-11-15T17:12:56.405Z,8.43
2022-11-15T17:15:24.494Z,8.23
2022-11-15T17:17:53.072Z,8.25
2022-11-15T17:20:21.700Z,8.32
2022-11-15T17:22:48.140Z,8.23
2022-11-15T17:25:15.090Z,8.21
2022-11-15T17:27:41.657Z,8.16
2022-11-15T17:30:09.968Z,8.00
2022-11-15T17:32:39.807Z,7.96
2022-11-15T17:35:14.914Z,7.97
2022-11-15T17:37:41.950Z,7.79
2022-11-15T17:40:08.993Z,7.89
2022-11-15T17:42:35.555Z,7.80
2022-11-15T17:45:06.726Z,7.56
2022-11-15T17:47:34.800Z,7.47
2022-11-15T17:50:01.328Z,7.45
2022-11-15T17:52:27.762Z,7.52
2022-11-15T17:54:54.141Z,7.26
2022-11-15T17:57:20.591Z,7.42
2022-11-15T17:59:48.711Z,7.32
2022-11-15T18:02:15.095Z,7.36
2022-11-15T18:04:41.600Z,7.02
2022-11-15T18:07:08.251Z,7.04
2022-11-15T18:09:34.804Z,7.14
2022-11-15T18:12:01.423Z,6.85
2022-11-15T18:14:27.911Z,6.85
2022-11-15T18:16:54.984Z,6.82
2022-11-15T18:19:22.609Z,6.80
2022-11-15T18:21:59.100Z,6.81
2022-11-15T18:24:34.740Z,6.71
2022-11-15T18:27:02.661Z,6.54
2022-11-15T18:29:29.116Z,6.61
2022-11-15T18:31:55.812Z,6.71
2022-11-15T18:34:24.084Z,6.76
2022-11-15T18:36:52.442Z,6.56
2022-11-15T18:39:19.448Z,6.61
2022-11-15T18:41:49.271Z,6.50
2022-11-15T18:44:16.360Z,6.62
2022-11-15T18:46:44.955Z,6.69
2022-11-15T18:49:13.266Z,6.49
2022-11-15T18:51:43.291Z,6.60
2022-11-15T18:54:11.386Z,6.53
2022-11-15T18:56:38.816Z,6.46
2022-11-15T18:59:06.161Z,6.33
2022-11-15T19:01:38.118Z,6.49
2022-11-15T19:04:11.676Z,6.39
2022-11-15T19:06:40.769Z,6.30
2022-11-15T19:09:08.364Z,6.36
2022-11-15T19:11:36.908Z,6.07
2022-11-15T19:14:05.978Z,6.07
2022-11-15T19:16:35.046Z,6.18
2022-11-15T19:19:06.806Z,5.88
2022-11-15T19:21:33.765Z,6.06
2022-11-15T19:24:01.374Z,6.00
2022-11-15T19:26:28.936Z,5.83
2022-11-15T19:29:00.307Z,5.80
2022-11-15T19:31:29.115Z,5.82
2022-11-15T19:33:56.183Z,5.82
2022-11-15T19:36:28.593Z,5.74
2022-11-15T19:38:56.064Z,5.84
2022-11-15T19:41:24.060Z,5.79
2022-11-15T19:43:51.567Z,5.63
2022-11-15T19:46:20.798Z,5.62
2022-11-15T19:48:48.145Z,5.55
2022-11-15T19:51:19.188Z,5.46
2022-11-15T19:53:45.917Z,5.50
2022-11-15T19:56:14.835Z,5.36
2022-11-15T19:58:42.075Z,5.45
2022-11-15T20:01:16.125Z,5.11
2022-11-15T20:03:42.533Z,5.22
2022-11-15T20:06:11.797Z,5.21
2022-11-15T20:08:38.604Z,5.32
2022-11-15T20:11:05.630Z,5.33
2022-11-15T20:13:32.243Z,5.15
2022-11-15T20:15:59.563Z,5.11
2022-11-15T20:18:27.416Z,5.06
2022-11-15T20:20:56.474Z,5.12
2022-11-15T20:23:22.957Z,5.08
2022-11-15T20:25:49.643Z,4.98
2022-11-15T20:28:21.681Z,5.02
2022-11-15T20:30:51.156Z,5.03
2022-11-15T20:33:17.826Z,4.96
2022-11-15T20:35:44.239Z,5.13
2022-11-15T20:38:11.721Z,5.13
2022-11-15T20:40:39.424Z,4.89
2022-11-15T20:43:06.705Z,4.97
2022-11-15T20:45:33.260Z,5.23
2022-11-15T20:47:59.718Z,4.97
2022-11-15T20:50:42.311Z,4.67
2022-11-15T20:53:11.605Z,4.84
2022-11-15T20:55:47.608Z,4.75
2022-11-15T20:58:15.680Z,4.84
2022-11-15T21:00:43.201Z,4.76
2022-11-15T21:03:09.734Z,4.94
2022-11-15T21:05:40.811Z,5.07
2022-11-15T21:08:08.156Z,4.96
2022-11-15T21:10:53.481Z,4.75
2022-11-15T21:13:20.347Z,4.53
2022-11-15T21:15:47.154Z,4.76
2022-11-15T21:18:14.036Z,4.76
2022-11-15T21:20:40.507Z,4.61
2022-11-15T21:23:07.088Z,4.75
2022-11-15T21:25:34.277Z,4.80
2022-11-15T21:28:00.723Z,4.64
2022-11-15T21:30:27.463Z,4.56
2022-11-15T21:32:53.876Z,4.61
2022-11-15T21:35:20.418Z,4.56
2022-11-15T21:37:50.556Z,4.57
2022-11-15T21:40:19.895Z,4.69
2022-11-15T21:42:46.678Z,4.54
2022-11-15T21:45:13.103Z,4.48
2022-11-15T21:47:44.673Z,4.46
2022-11-15T21:50:12.560Z,4.13
2022-11-15T21:52:39.132Z,4.22
2022-11-15T21:55:05.831Z,4.33
2022-11-15T21:57:32.442Z,4.24
2022-11-15T22:00:17.289Z,4.26
2022-11-15T22:02:43.688Z,4.36
2022-11-15T22:05:10.083Z,4.61
2022-11-15T22:07:36.636Z,4.46
2022-11-15T22:10:03.669Z,4.31
2022-11-15T22:12:30.144Z,4.49
2022-11-15T22:14:57.004Z,4.53
2022-11-15T22:17:24.575Z,4.34
2022-11-15T22:19:52.865Z,4.59
2022-11-15T22:22:19.686Z,4.37
2022-11-15T22:24:46.140Z,4.14
2022-11-15T22:27:12.615Z,4.02
2022-11-15T22:29:39.102Z,4.19
2022-11-15T22:32:05.564Z,4.15
2022-11-15T22:34:32.087Z,4.05
2022-11-15T22:37:19.701Z,3.88
2022-11-15T22:39:44.995Z,3.71
2022-11-15T22:42:11.562Z,3.80
2022-11-15T22:44:38.049Z,3.82
2022-11-15T22:47:04.603Z,3.82
2022-11-15T22:49:31.122Z,3.86
2022-11-15T22:51:57.551Z,3.91
2022-11-15T22:54:24.001Z,3.72
2022-11-15T22:56:50.475Z,3.85
2022-11-15T22:59:16.929Z,3.79
2022-11-15T23:01:43.423Z,3.81
2022-11-15T23:04:09.919Z,4.01
2022-11-15T23:06:36.477Z,3.76
2022-11-15T23:09:03.170Z,3.56
2022-11-15T23:11:48.205Z,3.77
2022-11-15T23:14:14.737Z,3.62
2022-11-15T23:16:41.542Z,3.77
2022-11-15T23:19:10.349Z,3.81
2022-11-15T23:21:58.195Z,3.54
2022-11-15T23:24:25.030Z,3.56
2022-11-15T23:26:54.781Z,3.59
2022-11-15T23:29:23.032Z,3.59
2022-11-15T23:32:07.939Z,3.66
2022-11-15T23:34:40.140Z,3.79
2022-11-15T23:37:08.329Z,3.82
2022-11-15T23:39:34.845Z,3.84
2022-11-15T23:42:06.064Z,3.69
2022-11-15T23:44:34.064Z,3.63
2022-11-15T23:47:00.564Z,3.60
2022-11-15T23:49:27.091Z,3.79
2022-11-15T23:51:53.904Z,3.58
2022-11-15T23:54:20.361Z,3.42
2022-11-15T23:56:46.880Z,3.34
2022-11-15T23:59:13.357Z,3.37
